createdAt,value
2018-12-06T00:01:27.893Z,3.80
2018-12-06T00:03:55.370Z,3.70
2018-12-06T00:06:22.845Z,3.90
2018-12-06T00:08:50.330Z,4.10
2018-12-06T00:11:17.804Z,3.90
2018-12-06T00:13:45.259Z,4.10
2018-12-06T00:16:12.731Z,4.10
2018-12-06T00:18:40.205Z,4.10
2018-12-06T00:21:07.715Z,4.50
2018-12-06T00:23:35.296Z,4.50
2018-12-06T00:26:02.774Z,4.70
2018-12-06T00:28:30.260Z,4.80
2018-12-06T00:30:57.750Z,4.80
2018-12-06T00:33:25.216Z,4.90
2018-12-06T00:35:52.686Z,4.80
2018-12-06T00:38:20.156Z,4.90
2018-12-06T00:40:47.660Z,4.70
2018-12-06T00:43:15.126Z,4.50
2018-12-06T00:45:42.612Z,4.40
2018-12-06T00:48:10.266Z,4.40
2018-12-06T00:50:37.734Z,4.60
2018-12-06T00:53:05.252Z,4.80
2018-12-06T00:55:32.726Z,4.80
2018-12-06T00:58:00.202Z,4.40
2018-12-06T01:00:27.670Z,4.60
2018-12-06T01:02:55.154Z,4.50
2018-12-06T01:05:22.614Z,4.40
2018-12-06T01:07:50.144Z,4.30
2018-12-06T01:10:17.739Z,4.50
2018-12-06T01:12:45.216Z,4.50
2018-12-06T01:15:12.788Z,4.50
2018-12-06T01:17:41.304Z,4.40
2018-12-06T01:20:08.898Z,4.60
2018-12-06T01:22:36.368Z,4.10
2018-12-06T01:25:04.663Z,4.20
2018-12-06T01:27:32.154Z,4.20
2018-12-06T01:29:59.615Z,4.10
2018-12-06T01:32:27.085Z,4.10
2018-12-06T01:34:54.615Z,4.10
2018-12-06T01:37:22.094Z,4.20
2018-12-06T01:39:49.566Z,4.10
2018-12-06T01:42:17.049Z,4.00
2018-12-06T01:44:44.512Z,4.00
2018-12-06T01:47:12.056Z,4.10
2018-12-06T01:49:39.514Z,4.00
2018-12-06T01:52:06.991Z,4.00
2018-12-06T01:54:34.466Z,3.90
2018-12-06T01:57:01.948Z,3.80
2018-12-06T01:59:29.407Z,3.80
2018-12-06T02:01:56.904Z,3.80
2018-12-06T02:04:24.391Z,3.70
2018-12-06T02:06:51.861Z,3.80
2018-12-06T02:09:19.334Z,3.80
2018-12-06T02:11:46.866Z,3.90
2018-12-06T02:14:14.348Z,4.00
2018-12-06T02:16:41.814Z,4.00
2018-12-06T02:19:09.302Z,4.00
2018-12-06T02:21:36.770Z,4.10
2018-12-06T02:24:04.274Z,4.00
2018-12-06T02:26:31.732Z,4.10
2018-12-06T02:28:59.214Z,4.20
2018-12-06T02:31:26.679Z,4.10
2018-12-06T02:33:54.153Z,4.00
2018-12-06T02:36:21.621Z,4.00
2018-12-06T02:38:49.109Z,4.20
2018-12-06T02:41:17.559Z,4.10
2018-12-06T02:43:45.015Z,4.10
2018-12-06T02:46:12.506Z,4.10
2018-12-06T02:48:40.013Z,4.00
2018-12-06T02:51:07.558Z,4.00
2018-12-06T02:53:35.124Z,4.00
2018-12-06T02:56:02.638Z,4.00
2018-12-06T02:58:30.122Z,4.00
2018-12-06T03:00:57.588Z,4.10
2018-12-06T03:03:25.066Z,4.00
2018-12-06T03:05:52.568Z,4.00
2018-12-06T03:08:20.048Z,4.00
2018-12-06T03:10:47.519Z,4.00
2018-12-06T03:13:15.003Z,4.00
2018-12-06T03:15:42.491Z,3.90
2018-12-06T03:18:09.977Z,4.00
2018-12-06T03:20:37.449Z,4.10
2018-12-06T03:23:04.917Z,4.00
2018-12-06T03:25:32.402Z,4.00
2018-12-06T03:27:59.879Z,3.90
2018-12-06T03:30:27.350Z,4.00
2018-12-06T03:32:54.826Z,4.00
2018-12-06T03:35:22.295Z,4.10
2018-12-06T03:37:49.754Z,4.00
2018-12-06T03:40:17.239Z,4.00
2018-12-06T03:42:44.722Z,4.20
2018-12-06T03:45:12.258Z,4.10
2018-12-06T03:47:39.733Z,4.10
2018-12-06T03:50:07.370Z,4.10
2018-12-06T03:52:34.840Z,4.10
2018-12-06T03:55:02.308Z,4.10
2018-12-06T03:57:29.766Z,4.00
2018-12-06T03:59:57.230Z,4.20
2018-12-06T04:02:24.714Z,4.10
2018-12-06T04:04:52.193Z,4.10
2018-12-06T04:07:19.817Z,4.20
2018-12-06T04:09:47.302Z,4.20
2018-12-06T04:12:14.776Z,4.10
2018-12-06T04:14:42.355Z,4.00
2018-12-06T04:17:09.813Z,4.30
2018-12-06T04:19:37.319Z,4.30
2018-12-06T04:22:04.783Z,4.20
2018-12-06T04:24:32.256Z,4.10
2018-12-06T04:26:59.743Z,4.10
2018-12-06T04:29:27.195Z,4.30
2018-12-06T04:31:54.698Z,4.20
2018-12-06T04:34:22.166Z,4.30
2018-12-06T04:36:49.669Z,4.40
2018-12-06T04:39:17.136Z,4.30
2018-12-06T04:41:44.631Z,4.50
2018-12-06T04:44:12.094Z,4.40
2018-12-06T04:46:39.576Z,4.30
2018-12-06T04:49:07.033Z,4.30
2018-12-06T04:51:34.516Z,4.30
2018-12-06T04:54:01.966Z,4.30
2018-12-06T04:56:29.581Z,4.40
2018-12-06T04:58:57.086Z,4.30
2018-12-06T05:01:24.562Z,4.20
2018-12-06T05:03:52.093Z,4.20
2018-12-06T05:06:19.628Z,4.30
2018-12-06T05:08:47.099Z,4.20
2018-12-06T05:11:14.587Z,4.30
2018-12-06T05:13:42.521Z,4.00
2018-12-06T05:16:10.003Z,4.10
2018-12-06T05:18:37.469Z,4.20
2018-12-06T05:21:04.942Z,4.30
2018-12-06T05:23:32.425Z,4.30
2018-12-06T05:25:59.893Z,4.30
2018-12-06T05:28:27.367Z,4.40
2018-12-06T05:30:54.886Z,4.50
2018-12-06T05:33:22.376Z,4.60
2018-12-06T05:35:49.849Z,4.70
2018-12-06T05:38:17.343Z,4.60
2018-12-06T05:40:44.893Z,4.70
2018-12-06T05:43:12.397Z,4.80
2018-12-06T05:45:39.869Z,4.80
2018-12-06T05:48:07.414Z,4.90
2018-12-06T05:50:34.898Z,5.00
2018-12-06T05:53:02.369Z,5.00
2018-12-06T05:55:29.840Z,5.00
2018-12-06T05:57:57.348Z,4.90
2018-12-06T06:00:24.811Z,5.00
2018-12-06T06:02:52.290Z,5.00
2018-12-06T06:05:19.764Z,5.00
2018-12-06T06:07:47.262Z,5.00
2018-12-06T06:10:14.736Z,5.10
2018-12-06T06:12:42.221Z,5.10
2018-12-06T06:15:09.771Z,5.10
2018-12-06T06:17:38.431Z,5.10
2018-12-06T06:20:05.971Z,5.10
2018-12-06T06:22:33.439Z,5.10
2018-12-06T06:25:00.947Z,5.10
2018-12-06T06:27:28.533Z,5.10
2018-12-06T06:29:56.018Z,5.10
2018-12-06T06:32:23.476Z,5.10
2018-12-06T06:34:50.970Z,5.10
2018-12-06T06:37:18.436Z,5.10
2018-12-06T06:39:45.912Z,5.20
2018-12-06T06:42:13.385Z,5.20
2018-12-06T06:44:40.859Z,5.20
2018-12-06T06:47:08.530Z,5.10
2018-12-06T06:49:36.019Z,5.20
2018-12-06T06:52:03.552Z,5.20
2018-12-06T06:54:31.021Z,5.30
2018-12-06T06:56:58.485Z,5.30
2018-12-06T06:59:26.484Z,5.30
2018-12-06T07:01:54.107Z,5.30
2018-12-06T07:04:21.573Z,5.30
2018-12-06T07:06:49.064Z,5.30
2018-12-06T07:09:16.522Z,5.30
2018-12-06T07:11:43.982Z,5.20
2018-12-06T07:14:11.461Z,5.20
2018-12-06T07:16:39.408Z,5.30
2018-12-06T07:19:06.876Z,5.30
2018-12-06T07:21:34.348Z,5.30
2018-12-06T07:24:01.818Z,5.30
2018-12-06T07:26:29.301Z,5.30
2018-12-06T07:28:56.867Z,5.30
2018-12-06T07:31:24.402Z,5.30
2018-12-06T07:33:51.867Z,5.20
2018-12-06T07:36:19.336Z,5.30
2018-12-06T07:38:46.824Z,5.20
2018-12-06T07:41:14.299Z,5.40
2018-12-06T07:43:41.754Z,5.40
2018-12-06T07:46:10.102Z,5.60
2018-12-06T07:48:37.626Z,5.50
2018-12-06T07:51:06.911Z,5.60
2018-12-06T07:53:34.449Z,5.60
2018-12-06T07:56:02.693Z,5.60
2018-12-06T07:58:30.258Z,5.70
2018-12-06T08:00:57.814Z,5.70
2018-12-06T08:03:25.268Z,5.80
2018-12-06T08:05:52.754Z,5.90
2018-12-06T08:08:20.215Z,5.90
2018-12-06T08:10:47.694Z,5.90
2018-12-06T08:13:15.163Z,6.00
2018-12-06T08:15:42.623Z,6.00
2018-12-06T08:18:10.944Z,5.90
2018-12-06T08:20:38.462Z,5.90
2018-12-06T08:23:05.935Z,5.90
2018-12-06T08:25:36.217Z,6.00
2018-12-06T08:28:03.748Z,6.00
2018-12-06T08:30:31.224Z,6.00
2018-12-06T08:32:58.716Z,6.00
2018-12-06T08:35:26.183Z,6.00
2018-12-06T08:37:53.657Z,6.10
2018-12-06T08:40:21.129Z,6.20
2018-12-06T08:42:48.618Z,6.20
2018-12-06T08:45:16.078Z,6.20
2018-12-06T08:47:43.583Z,6.30
2018-12-06T08:50:11.171Z,6.30
2018-12-06T08:52:39.077Z,6.30
2018-12-06T08:55:06.681Z,6.40
2018-12-06T08:57:34.289Z,6.40
2018-12-06T09:00:01.819Z,6.40
2018-12-06T09:02:29.365Z,6.60
2018-12-06T09:04:56.847Z,6.70
2018-12-06T09:07:24.320Z,6.90
2018-12-06T09:09:51.797Z,7.00
2018-12-06T09:12:19.259Z,7.20
2018-12-06T09:14:46.741Z,7.10
2018-12-06T09:17:14.229Z,7.20
2018-12-06T09:19:41.734Z,7.40
2018-12-06T09:22:09.201Z,7.60
2018-12-06T09:24:37.497Z,8.30
2018-12-06T09:27:04.970Z,9.20
2018-12-06T09:29:32.434Z,8.60
2018-12-06T09:31:59.944Z,9.60
2018-12-06T09:34:27.419Z,9.70
2018-12-06T09:36:54.967Z,9.30
2018-12-06T09:39:22.440Z,10.00
2018-12-06T09:41:49.912Z,11.00
2018-12-06T09:44:17.466Z,11.30
2018-12-06T09:46:44.967Z,10.00
2018-12-06T09:49:14.054Z,9.00
2018-12-06T09:51:41.523Z,8.70
2018-12-06T09:54:09.006Z,8.50
2018-12-06T09:56:36.558Z,8.60
2018-12-06T09:59:04.155Z,8.40
2018-12-06T10:01:31.625Z,8.50
2018-12-06T10:03:59.100Z,8.30
2018-12-06T10:06:26.574Z,8.00
2018-12-06T10:08:54.055Z,7.90
2018-12-06T10:11:21.532Z,7.90
2018-12-06T10:13:49.009Z,7.90
2018-12-06T10:16:16.477Z,7.90
2018-12-06T10:18:43.957Z,7.70
2018-12-06T10:21:11.435Z,7.70
2018-12-06T10:23:39.395Z,7.70
2018-12-06T10:26:07.895Z,7.80
2018-12-06T10:28:35.373Z,8.00
2018-12-06T10:31:02.834Z,7.90
2018-12-06T10:33:30.339Z,8.00
2018-12-06T10:35:58.497Z,8.20
2018-12-06T10:38:25.972Z,8.30
2018-12-06T10:40:53.450Z,8.20
2018-12-06T10:43:20.909Z,8.20
2018-12-06T10:45:48.391Z,8.30
2018-12-06T10:48:15.855Z,8.30
2018-12-06T10:50:43.349Z,8.20
2018-12-06T10:53:10.807Z,8.10
2018-12-06T10:55:38.283Z,8.20
2018-12-06T10:58:05.765Z,8.20
2018-12-06T11:00:38.954Z,8.50
2018-12-06T11:03:13.157Z,8.50
2018-12-06T11:05:40.703Z,8.60
2018-12-06T11:08:08.166Z,8.60
2018-12-06T11:10:35.649Z,8.60
2018-12-06T11:13:03.140Z,8.60
2018-12-06T11:15:30.656Z,8.60
2018-12-06T11:17:58.128Z,8.80
2018-12-06T11:20:25.609Z,8.80
2018-12-06T11:22:53.930Z,8.90
2018-12-06T11:25:21.404Z,8.80
2018-12-06T11:28:21.966Z,8.80
2018-12-06T11:30:49.486Z,8.70
2018-12-06T11:33:16.956Z,8.80
2018-12-06T11:35:44.441Z,8.90
2018-12-06T11:38:12.168Z,8.90
2018-12-06T11:40:39.635Z,8.90
2018-12-06T11:43:07.105Z,9.00
2018-12-06T11:45:34.645Z,8.90
2018-12-06T11:48:02.212Z,9.00
2018-12-06T11:50:29.709Z,9.00
2018-12-06T11:52:57.513Z,9.10
2018-12-06T11:55:25.067Z,9.00
2018-12-06T11:57:52.683Z,9.10
2018-12-06T12:00:20.185Z,9.20
2018-12-06T12:02:47.643Z,9.10
2018-12-06T12:05:15.217Z,9.30
2018-12-06T12:07:42.793Z,9.30
2018-12-06T12:10:10.877Z,9.20
2018-12-06T12:12:38.349Z,9.40
2018-12-06T12:15:07.050Z,9.40
2018-12-06T12:17:34.503Z,9.40
2018-12-06T12:20:01.993Z,9.40
2018-12-06T12:22:29.463Z,9.40
2018-12-06T12:24:56.927Z,9.70
2018-12-06T12:27:25.037Z,9.60
2018-12-06T12:29:52.519Z,9.60
2018-12-06T12:32:19.979Z,9.70
2018-12-06T12:34:47.527Z,9.80
2018-12-06T12:37:15.044Z,9.70
2018-12-06T12:39:42.508Z,9.80
2018-12-06T12:42:09.975Z,9.80
2018-12-06T12:44:37.462Z,9.70
2018-12-06T12:47:06.308Z,9.70
2018-12-06T12:49:33.802Z,9.70
2018-12-06T12:52:01.292Z,9.70
2018-12-06T12:54:28.766Z,9.60
2018-12-06T12:56:56.242Z,9.60
2018-12-06T12:59:23.724Z,9.50
2018-12-06T13:01:51.200Z,9.50
2018-12-06T13:04:18.714Z,9.40
2018-12-06T13:06:46.378Z,9.50
2018-12-06T13:09:13.838Z,9.40
2018-12-06T13:11:41.314Z,9.40
2018-12-06T13:14:08.836Z,9.40
2018-12-06T13:16:36.318Z,9.40
2018-12-06T13:19:03.880Z,9.30
2018-12-06T13:21:31.350Z,9.30
2018-12-06T13:23:58.811Z,9.30
2018-12-06T13:26:26.406Z,9.30
2018-12-06T13:28:53.888Z,9.40
2018-12-06T13:31:21.382Z,9.30
2018-12-06T13:33:48.915Z,9.50
2018-12-06T13:36:16.374Z,9.30
2018-12-06T13:38:44.293Z,9.40
2018-12-06T13:41:11.835Z,9.40
2018-12-06T13:43:39.313Z,9.40
2018-12-06T13:46:06.874Z,9.40
2018-12-06T13:48:34.373Z,9.30
2018-12-06T13:51:01.920Z,9.40
2018-12-06T13:53:29.379Z,9.40
2018-12-06T13:55:56.936Z,9.30
2018-12-06T13:58:24.412Z,9.40
2018-12-06T14:00:52.126Z,9.40
2018-12-06T14:03:19.955Z,9.40
2018-12-06T14:05:47.429Z,9.50
2018-12-06T14:08:14.904Z,9.50
2018-12-06T14:10:42.433Z,9.60
2018-12-06T14:13:09.913Z,9.50
2018-12-06T14:15:37.447Z,9.60
2018-12-06T14:18:04.935Z,9.50
2018-12-06T14:20:32.395Z,9.70
2018-12-06T14:22:59.881Z,9.70
2018-12-06T14:25:27.361Z,9.50
2018-12-06T14:27:54.870Z,9.50
2018-12-06T14:30:22.443Z,9.50
2018-12-06T14:32:49.934Z,9.60
2018-12-06T14:35:17.397Z,9.50
2018-12-06T14:37:44.881Z,9.50
2018-12-06T14:40:12.433Z,9.50
2018-12-06T14:42:39.927Z,9.60
2018-12-06T14:45:07.525Z,9.50
2018-12-06T14:47:36.098Z,9.50
2018-12-06T14:50:05.526Z,9.50
2018-12-06T14:52:32.990Z,9.50
2018-12-06T14:55:00.470Z,9.40
2018-12-06T14:57:27.952Z,9.40
2018-12-06T14:59:55.436Z,9.50
2018-12-06T15:02:22.916Z,9.40
2018-12-06T15:04:50.375Z,9.40
2018-12-06T15:07:17.863Z,9.40
2018-12-06T15:09:45.356Z,9.50
2018-12-06T15:12:13.297Z,9.40
2018-12-06T15:14:40.835Z,9.50
2018-12-06T15:17:08.300Z,9.60
2018-12-06T15:19:35.790Z,9.60
2018-12-06T15:22:03.263Z,9.50
2018-12-06T15:24:30.749Z,9.50
2018-12-06T15:26:58.223Z,9.50
2018-12-06T15:29:25.713Z,9.50
2018-12-06T15:31:53.192Z,9.50
2018-12-06T15:34:20.677Z,9.50
2018-12-06T15:36:48.158Z,9.50
2018-12-06T15:39:15.632Z,9.50
2018-12-06T15:41:43.102Z,9.60
2018-12-06T15:44:10.655Z,9.50
2018-12-06T15:46:38.201Z,9.50
2018-12-06T15:49:05.698Z,9.50
2018-12-06T15:51:33.159Z,9.50
2018-12-06T15:54:00.627Z,9.60
2018-12-06T15:56:28.101Z,9.60
2018-12-06T15:58:55.592Z,9.60
2018-12-06T16:01:23.062Z,9.70
2018-12-06T16:03:50.518Z,9.60
2018-12-06T16:06:18.015Z,9.60
2018-12-06T16:08:45.475Z,9.60
2018-12-06T16:11:12.951Z,9.60
2018-12-06T16:13:40.419Z,9.60
2018-12-06T16:16:07.885Z,9.60
2018-12-06T16:18:35.343Z,9.60
2018-12-06T16:21:02.831Z,9.50
2018-12-06T16:23:30.317Z,9.50
2018-12-06T16:25:57.818Z,9.50
2018-12-06T16:28:25.302Z,9.50
2018-12-06T16:30:52.797Z,9.40
2018-12-06T16:33:20.347Z,9.40
2018-12-06T16:35:47.821Z,9.30
2018-12-06T16:38:15.371Z,9.40
2018-12-06T16:40:42.921Z,9.40
2018-12-06T16:43:10.466Z,9.40
2018-12-06T16:45:37.951Z,9.40
2018-12-06T16:48:05.423Z,9.30
2018-12-06T16:50:32.901Z,9.30
2018-12-06T16:53:00.373Z,9.30
2018-12-06T16:55:27.861Z,9.30
2018-12-06T16:57:55.332Z,9.20
2018-12-06T17:00:22.813Z,9.20
2018-12-06T17:02:50.287Z,9.20
2018-12-06T17:05:17.777Z,9.10
2018-12-06T17:07:45.483Z,9.10
2018-12-06T17:10:12.982Z,9.10
2018-12-06T17:12:40.458Z,9.20
2018-12-06T17:15:08.046Z,9.20
2018-12-06T17:17:35.503Z,9.20
2018-12-06T17:20:03.745Z,9.30
2018-12-06T17:22:31.232Z,9.20
2018-12-06T17:24:58.713Z,9.30
2018-12-06T17:27:26.222Z,9.20
2018-12-06T17:29:53.947Z,9.20
2018-12-06T17:32:21.496Z,9.30
2018-12-06T17:34:49.782Z,9.40
2018-12-06T17:37:17.416Z,9.40
2018-12-06T17:39:44.918Z,9.40
2018-12-06T17:42:12.428Z,9.50
2018-12-06T17:44:39.906Z,9.50
2018-12-06T17:47:07.442Z,9.50
2018-12-06T17:49:34.918Z,9.50
2018-12-06T17:52:02.395Z,9.50
2018-12-06T17:54:31.627Z,9.60
2018-12-06T17:56:59.146Z,9.60
2018-12-06T17:59:26.621Z,9.60
2018-12-06T18:01:54.084Z,9.60
2018-12-06T18:04:21.557Z,9.60
2018-12-06T18:06:49.051Z,9.70
2018-12-06T18:09:16.535Z,9.60
2018-12-06T18:11:44.011Z,9.50
2018-12-06T18:14:11.816Z,9.50
2018-12-06T18:16:39.311Z,9.50
2018-12-06T18:19:06.779Z,9.50
2018-12-06T18:21:34.415Z,9.40
2018-12-06T18:24:01.935Z,9.30
2018-12-06T18:26:29.393Z,9.40
2018-12-06T18:28:56.876Z,9.30
2018-12-06T18:31:24.382Z,9.30
2018-12-06T18:33:51.851Z,9.40
2018-12-06T18:36:19.319Z,9.40
2018-12-06T18:38:46.797Z,9.40
2018-12-06T18:41:14.289Z,9.40
2018-12-06T18:43:41.976Z,9.40
2018-12-06T18:46:09.454Z,9.40
2018-12-06T18:48:37.995Z,9.40
2018-12-06T18:51:05.471Z,9.50
2018-12-06T18:53:33.037Z,9.50
2018-12-06T18:56:00.575Z,9.60
2018-12-06T18:58:34.166Z,9.70
2018-12-06T19:00:57.796Z,9.70
2018-12-06T19:03:25.454Z,9.70
2018-12-06T19:05:52.929Z,9.80
2018-12-06T19:08:20.416Z,9.80
2018-12-06T19:10:47.890Z,9.90
2018-12-06T19:13:15.381Z,9.90
2018-12-06T19:15:42.857Z,9.90
2018-12-06T19:18:10.540Z,9.90
2018-12-06T19:20:38.000Z,10.00
2018-12-06T19:23:05.490Z,9.90
2018-12-06T19:25:32.947Z,9.90
2018-12-06T19:28:00.427Z,9.90
2018-12-06T19:30:27.903Z,9.80
2018-12-06T19:32:59.358Z,9.90
2018-12-06T19:35:24.888Z,9.90
2018-12-06T19:37:52.450Z,9.90
2018-12-06T19:40:19.960Z,9.90
2018-12-06T19:42:47.466Z,9.90
2018-12-06T19:45:14.934Z,9.90
2018-12-06T19:47:42.491Z,9.90
2018-12-06T19:50:10.112Z,9.80
2018-12-06T19:52:37.594Z,9.80
2018-12-06T19:55:05.708Z,9.70
2018-12-06T19:57:33.180Z,9.70
2018-12-06T20:00:00.667Z,9.50
2018-12-06T20:02:28.147Z,9.50
2018-12-06T20:04:55.689Z,9.50
2018-12-06T20:07:23.211Z,9.30
2018-12-06T20:09:50.691Z,9.30
2018-12-06T20:12:18.169Z,9.20
2018-12-06T20:14:45.635Z,9.10
2018-12-06T20:17:13.215Z,9.20
2018-12-06T20:19:40.695Z,9.30
2018-12-06T20:22:08.358Z,9.20
2018-12-06T20:24:36.141Z,9.20
2018-12-06T20:27:03.628Z,9.20
2018-12-06T20:29:31.105Z,9.20
2018-12-06T20:31:58.572Z,9.20
2018-12-06T20:34:26.054Z,9.20
2018-12-06T20:36:53.585Z,9.30
2018-12-06T20:39:21.083Z,9.40
2018-12-06T20:41:48.551Z,9.30
2018-12-06T20:44:16.043Z,9.30
2018-12-06T20:46:44.720Z,9.30
2018-12-06T20:49:12.186Z,9.40
2018-12-06T20:51:39.694Z,9.30
2018-12-06T20:54:07.215Z,9.30
2018-12-06T20:56:34.694Z,9.30
2018-12-06T20:59:02.174Z,9.40
2018-12-06T21:01:29.704Z,9.30
2018-12-06T21:03:57.286Z,9.30
2018-12-06T21:06:24.820Z,9.30
2018-12-06T21:08:52.288Z,9.40
2018-12-06T21:11:19.764Z,9.30
2018-12-06T21:13:47.314Z,9.40
2018-12-06T21:16:14.800Z,9.40
2018-12-06T21:18:42.272Z,9.40
2018-12-06T21:21:09.772Z,9.40
2018-12-06T21:23:37.284Z,9.40
2018-12-06T21:26:04.755Z,9.40
2018-12-06T21:28:32.218Z,9.40
2018-12-06T21:30:59.756Z,9.40
2018-12-06T21:33:27.424Z,9.40
2018-12-06T21:35:54.947Z,9.40
2018-12-06T21:38:24.409Z,9.40
2018-12-06T21:40:51.888Z,9.40
2018-12-06T21:43:19.383Z,9.40
2018-12-06T21:45:46.857Z,9.50
2018-12-06T21:48:14.390Z,9.50
2018-12-06T21:50:41.862Z,9.50
2018-12-06T21:53:09.353Z,9.60
2018-12-06T21:55:36.826Z,9.60
2018-12-06T21:58:04.318Z,9.60
2018-12-06T22:00:31.807Z,9.60
2018-12-06T22:02:59.287Z,9.70
2018-12-06T22:05:26.762Z,9.60
2018-12-06T22:07:54.230Z,9.70
2018-12-06T22:10:21.700Z,9.70
2018-12-06T22:12:49.177Z,9.70
2018-12-06T22:15:16.621Z,9.60
2018-12-06T22:17:44.113Z,9.70
2018-12-06T22:20:11.581Z,9.70
2018-12-06T22:22:39.056Z,9.70
2018-12-06T22:25:06.584Z,9.70
2018-12-06T22:27:34.052Z,9.70
2018-12-06T22:30:01.564Z,9.70
2018-12-06T22:32:29.034Z,9.70
2018-12-06T22:34:56.504Z,9.70
2018-12-06T22:37:24.004Z,9.80
2018-12-06T22:39:51.466Z,9.80
2018-12-06T22:42:18.942Z,9.80
2018-12-06T22:44:46.402Z,9.80
2018-12-06T22:47:13.881Z,9.90
2018-12-06T22:49:41.353Z,9.90
2018-12-06T22:52:08.836Z,9.80
2018-12-06T22:54:37.202Z,9.80
2018-12-06T22:57:04.879Z,9.80
2018-12-06T22:59:32.368Z,9.90
2018-12-06T23:01:59.910Z,9.90
2018-12-06T23:04:27.379Z,9.90
2018-12-06T23:06:54.880Z,9.90
2018-12-06T23:09:22.434Z,10.00
2018-12-06T23:11:49.976Z,10.00
2018-12-06T23:14:17.694Z,10.00
2018-12-06T23:16:45.161Z,10.00
2018-12-06T23:19:13.738Z,10.10
2018-12-06T23:21:41.460Z,10.10
2018-12-06T23:24:08.917Z,10.10
2018-12-06T23:26:37.498Z,10.20
2018-12-06T23:29:05.017Z,10.30
2018-12-06T23:31:32.503Z,10.40
2018-12-06T23:33:59.985Z,10.40
2018-12-06T23:36:27.471Z,10.40
2018-12-06T23:38:54.964Z,10.50
2018-12-06T23:41:22.483Z,10.60
2018-12-06T23:43:49.991Z,10.60
2018-12-06T23:46:17.487Z,10.60
2018-12-06T23:48:44.971Z,10.60
2018-12-06T23:51:24.233Z,10.60
2018-12-06T23:53:51.711Z,10.70
2018-12-06T23:56:19.187Z,10.70
2018-12-06T23:58:46.729Z,10.70
